Time;durP1;ratioP1;P1;durP2;ratioP2;P2;SDS_P1;SDS_P2;PMS_P1;PMS_P2;Temp;Humidity;BMP_temperature;BMP_pressure;BME280_temperature;BME280_humidity;BME280_pressure;Samples;Min_cycle;Max_cycle;Signal;HPM_P1;HPM_P2
2019/09/25 00:02:12;;;;;;;5.1;2.9;;;;;;;;;;;;;
2019/09/25 00:04:34;;;;;;;4.6;2.8;;;;;;;;;;;;;
2019/09/25 00:06:59;;;;;;;4.4;2.7;;;;;;;;;;;;;
2019/09/25 00:09:25;;;;;;;5.7;3.3;;;;;;;;;;;;;
2019/09/25 00:11:49;;;;;;;5;4.2;;;;;;;;;;;;;
2019/09/25 00:14:15;;;;;;;6.9;6;;;;;;;;;;;;;
2019/09/25 00:16:40;;;;;;;4.7;3.5;;;;;;;;;;;;;
2019/09/25 00:19:05;;;;;;;4.3;2.8;;;;;;;;;;;;;
2019/09/25 00:21:30;;;;;;;4.9;3.2;;;;;;;;;;;;;
2019/09/25 00:23:55;;;;;;;4.8;3.4;;;;;;;;;;;;;
2019/09/25 00:26:20;;;;;;;4.2;2.9;;;;;;;;;;;;;
2019/09/25 00:28:45;;;;;;;6;3.8;;;;;;;;;;;;;
2019/09/25 00:31:10;;;;;;;7.3;4;;;;;;;;;;;;;
2019/09/25 00:33:35;;;;;;;4.2;2.7;;;;;;;;;;;;;
2019/09/25 00:36:00;;;;;;;3.6;2.3;;;;;;;;;;;;;
2019/09/25 00:38:26;;;;;;;3.8;2.5;;;;;;;;;;;;;
2019/09/25 00:40:51;;;;;;;5.4;3.3;;;;;;;;;;;;;
2019/09/25 00:43:16;;;;;;;5.6;4.3;;;;;;;;;;;;;
2019/09/25 00:45:41;;;;;;;3.7;2.7;;;;;;;;;;;;;
2019/09/25 00:48:06;;;;;;;3.1;2.2;;;;;;;;;;;;;
2019/09/25 00:50:31;;;;;;;4.1;2.4;;;;;;;;;;;;;
2019/09/25 00:52:56;;;;;;;3.7;2.3;;;;;;;;;;;;;
2019/09/25 00:55:21;;;;;;;3.8;2.3;;;;;;;;;;;;;
2019/09/25 00:57:47;;;;;;;3.5;2.3;;;;;;;;;;;;;
2019/09/25 01:00:18;;;;;;;4.1;2.1;;;;;;;;;;;;;
2019/09/25 01:02:37;;;;;;;4.8;2.3;;;;;;;;;;;;;
2019/09/25 01:05:02;;;;;;;4.8;2.5;;;;;;;;;;;;;
2019/09/25 01:07:27;;;;;;;3.2;2.2;;;;;;;;;;;;;
2019/09/25 01:09:52;;;;;;;3.9;2;;;;;;;;;;;;;
2019/09/25 01:12:17;;;;;;;2.5;1.8;;;;;;;;;;;;;
2019/09/25 01:14:42;;;;;;;3.6;2.3;;;;;;;;;;;;;
2019/09/25 01:17:07;;;;;;;4.1;2;;;;;;;;;;;;;
2019/09/25 01:19:33;;;;;;;3.7;1.9;;;;;;;;;;;;;
2019/09/25 01:21:58;;;;;;;3.3;2.2;;;;;;;;;;;;;
2019/09/25 01:24:23;;;;;;;3.6;2.6;;;;;;;;;;;;;
2019/09/25 01:26:48;;;;;;;3.7;2.3;;;;;;;;;;;;;
2019/09/25 01:29:13;;;;;;;3.4;2.3;;;;;;;;;;;;;
2019/09/25 01:31:38;;;;;;;3.8;2.4;;;;;;;;;;;;;
2019/09/25 01:34:03;;;;;;;3.3;2.3;;;;;;;;;;;;;
2019/09/25 01:36:28;;;;;;;2.9;2.2;;;;;;;;;;;;;
2019/09/25 01:38:53;;;;;;;4.3;2.5;;;;;;;;;;;;;
2019/09/25 01:41:18;;;;;;;4.3;2.5;;;;;;;;;;;;;
2019/09/25 01:43:43;;;;;;;2.8;2.1;;;;;;;;;;;;;
2019/09/25 01:46:08;;;;;;;4.5;2.7;;;;;;;;;;;;;
2019/09/25 01:48:33;;;;;;;4.3;2.5;;;;;;;;;;;;;
2019/09/25 01:50:59;;;;;;;3.4;2.2;;;;;;;;;;;;;
2019/09/25 01:53:24;;;;;;;2.8;2.1;;;;;;;;;;;;;
2019/09/25 01:55:49;;;;;;;3.9;2.5;;;;;;;;;;;;;
2019/09/25 01:58:14;;;;;;;3.1;2.3;;;;;;;;;;;;;
2019/09/25 02:00:39;;;;;;;4.4;2.3;;;;;;;;;;;;;
2019/09/25 02:03:04;;;;;;;3.5;2.3;;;;;;;;;;;;;
2019/09/25 02:05:29;;;;;;;3.4;2.1;;;;;;;;;;;;;
2019/09/25 02:07:54;;;;;;;3.1;2.1;;;;;;;;;;;;;
2019/09/25 02:10:20;;;;;;;3.2;2.2;;;;;;;;;;;;;
2019/09/25 02:12:45;;;;;;;2.9;2.1;;;;;;;;;;;;;
2019/09/25 02:15:10;;;;;;;2.5;2.2;;;;;;;;;;;;;
2019/09/25 02:17:35;;;;;;;3.9;2;;;;;;;;;;;;;
2019/09/25 02:20:00;;;;;;;4.2;2.2;;;;;;;;;;;;;
2019/09/25 02:22:25;;;;;;;4.5;2.4;;;;;;;;;;;;;
2019/09/25 02:24:50;;;;;;;2.4;2;;;;;;;;;;;;;
2019/09/25 02:27:15;;;;;;;3.4;2.5;;;;;;;;;;;;;
2019/09/25 02:29:40;;;;;;;2.8;2.2;;;;;;;;;;;;;
2019/09/25 02:32:05;;;;;;;4.2;2.4;;;;;;;;;;;;;
2019/09/25 02:34:31;;;;;;;2.7;2.2;;;;;;;;;;;;;
2019/09/25 02:36:55;;;;;;;4.4;2.5;;;;;;;;;;;;;
2019/09/25 02:39:20;;;;;;;4;2.4;;;;;;;;;;;;;
2019/09/25 02:41:46;;;;;;;4.2;2.2;;;;;;;;;;;;;
2019/09/25 02:44:11;;;;;;;3.7;2.3;;;;;;;;;;;;;
2019/09/25 02:46:36;;;;;;;3.5;2.3;;;;;;;;;;;;;
2019/09/25 02:49:01;;;;;;;3.4;2.4;;;;;;;;;;;;;
2019/09/25 02:51:26;;;;;;;3.1;2.3;;;;;;;;;;;;;
2019/09/25 02:53:51;;;;;;;4.4;2.4;;;;;;;;;;;;;
2019/09/25 02:56:16;;;;;;;3.7;2.1;;;;;;;;;;;;;
2019/09/25 02:58:41;;;;;;;3.2;2.3;;;;;;;;;;;;;
2019/09/25 03:01:06;;;;;;;5.1;2.3;;;;;;;;;;;;;
2019/09/25 03:03:31;;;;;;;3.7;2.3;;;;;;;;;;;;;
2019/09/25 03:05:56;;;;;;;3.7;2.3;;;;;;;;;;;;;
2019/09/25 03:08:22;;;;;;;4.3;2.3;;;;;;;;;;;;;
2019/09/25 03:10:47;;;;;;;3.5;2.3;;;;;;;;;;;;;
2019/09/25 03:13:12;;;;;;;4.3;2.3;;;;;;;;;;;;;
2019/09/25 03:15:37;;;;;;;3.3;2.3;;;;;;;;;;;;;
2019/09/25 03:18:02;;;;;;;4.8;2.2;;;;;;;;;;;;;
2019/09/25 03:20:27;;;;;;;3.7;2.2;;;;;;;;;;;;;
2019/09/25 03:22:52;;;;;;;3.7;2.2;;;;;;;;;;;;;
2019/09/25 03:25:17;;;;;;;4.4;2.4;;;;;;;;;;;;;
2019/09/25 03:27:42;;;;;;;4.2;2.3;;;;;;;;;;;;;
2019/09/25 03:30:09;;;;;;;3.4;2.2;;;;;;;;;;;;;
2019/09/25 03:32:33;;;;;;;3.8;2.4;;;;;;;;;;;;;
2019/09/25 03:34:58;;;;;;;3.9;2.3;;;;;;;;;;;;;
2019/09/25 03:37:23;;;;;;;4.7;2.4;;;;;;;;;;;;;
2019/09/25 03:39:48;;;;;;;4.7;2.6;;;;;;;;;;;;;
2019/09/25 03:42:13;;;;;;;4.2;2.5;;;;;;;;;;;;;
2019/09/25 03:44:39;;;;;;;4.4;2.3;;;;;;;;;;;;;
2019/09/25 03:47:04;;;;;;;5.5;2.7;;;;;;;;;;;;;
2019/09/25 03:49:29;;;;;;;3.8;2.5;;;;;;;;;;;;;
2019/09/25 03:51:54;;;;;;;3.9;2.6;;;;;;;;;;;;;
2019/09/25 03:54:19;;;;;;;6;2.7;;;;;;;;;;;;;
2019/09/25 03:56:44;;;;;;;5.1;2.7;;;;;;;;;;;;;
2019/09/25 03:59:09;;;;;;;4.5;2.7;;;;;;;;;;;;;
2019/09/25 04:02:26;;;;;;;5.6;2.8;;;;;;;13.66;100;954.4227;;;;
2019/09/25 04:04:52;;;;;;;6.8;2.7;;;;;;;13.63;100;954.462;;;;
2019/09/25 04:07:17;;;;;;;4.6;2.6;;;;;;;13.66;100;954.4694;;;;
2019/09/25 04:09:42;;;;;;;7.2;2.9;;;;;;;13.69;100;954.4833;;;;
2019/09/25 04:12:07;;;;;;;5.7;2.8;;;;;;;13.77;100;954.4808;;;;
2019/09/25 04:14:32;;;;;;;5.9;2.8;;;;;;;13.76;100;954.4833;;;;
2019/09/25 04:16:57;;;;;;;5.6;2.4;;;;;;;13.78;100;954.3979;;;;
2019/09/25 04:19:22;;;;;;;5.6;2.7;;;;;;;13.77;100;954.4767;;;;
2019/09/25 04:21:47;;;;;;;4.4;2.4;;;;;;;13.75;100;954.407;;;;
2019/09/25 04:24:13;;;;;;;4.9;2.5;;;;;;;13.79;100;954.4963;;;;
2019/09/25 04:26:38;;;;;;;5.3;2.7;;;;;;;13.83;100;954.4978;;;;
2019/09/25 04:29:26;;;;;;;5.6;2.7;;;;;;;13.79;100;954.525;;;;
2019/09/25 04:31:51;;;;;;;6;2.5;;;;;;;13.82;100;954.5798;;;;
2019/09/25 04:34:16;;;;;;;6;2.6;;;;;;;13.77;100;954.5339;;;;
2019/09/25 04:36:41;;;;;;;4.1;2.3;;;;;;;13.83;100;954.4888;;;;
2019/09/25 04:39:06;;;;;;;4.2;2.4;;;;;;;13.84;100;954.492;;;;
2019/09/25 04:41:31;;;;;;;6.6;2.7;;;;;;;13.88;100;954.4938;;;;
2019/09/25 04:45:35;;;;;;;6;2.4;;;;;;;13.85;100;954.6036;;;;
2019/09/25 04:48:00;;;;;;;5.7;3.2;;;;;;;13.86;100;954.5798;;;;
2019/09/25 04:50:25;;;;;;;6.3;2.6;;;;;;;13.9;100;954.6008;;;;
2019/09/25 04:52:50;;;;;;;6.1;3;;;;;;;13.86;100;954.5732;;;;
2019/09/25 04:55:15;;;;;;;5.3;2.8;;;;;;;13.88;100;954.5953;;;;
2019/09/25 04:57:41;;;;;;;6;2.7;;;;;;;13.86;100;954.5928;;;;
2019/09/25 05:00:07;;;;;;;7.7;3.8;;;;;;;13.92;100;954.6041;;;;
2019/09/25 05:02:32;;;;;;;6.5;2.7;;;;;;;13.93;100;954.586;;;;
2019/09/25 05:04:57;;;;;;;6;2.4;;;;;;;13.93;100;954.5418;;;;
2019/09/25 05:07:22;;;;;;;6.2;2.7;;;;;;;13.93;100;954.5417;;;;
2019/09/25 05:09:47;;;;;;;5.7;2.6;;;;;;;13.88;100;954.5344;;;;
2019/09/25 05:12:12;;;;;;;7.2;2.7;;;;;;;13.82;100;954.5667;;;;
2019/09/25 05:14:37;;;;;;;7.2;2.6;;;;;;;13.81;100;954.6313;;;;
2019/09/25 05:17:02;;;;;;;5.5;2.3;;;;;;;13.81;100;954.6149;;;;
2019/09/25 05:19:27;;;;;;;5.8;2.6;;;;;;;13.82;100;954.6872;;;;
2019/09/25 05:21:52;;;;;;;6.3;2.3;;;;;;;13.81;100;954.7042;;;;
2019/09/25 05:24:17;;;;;;;7.2;2.8;;;;;;;13.81;100;954.7369;;;;
2019/09/25 05:26:42;;;;;;;6.2;2.5;;;;;;;13.85;100;954.7748;;;;
2019/09/25 05:29:07;;;;;;;5.4;2.5;;;;;;;13.91;100;954.741;;;;
2019/09/25 05:31:32;;;;;;;7.9;3;;;;;;;13.91;100;954.7269;;;;
2019/09/25 05:33:58;;;;;;;5.9;2.6;;;;;;;13.87;100;954.7394;;;;
2019/09/25 05:36:23;;;;;;;7.2;2.9;;;;;;;13.9;100;954.7228;;;;
2019/09/25 05:38:48;;;;;;;8.5;2.9;;;;;;;13.89;100;954.75;;;;
2019/09/25 05:41:13;;;;;;;8.4;3;;;;;;;13.86;100;954.8025;;;;
2019/09/25 05:43:38;;;;;;;8.5;2.8;;;;;;;13.87;100;954.8089;;;;
2019/09/25 05:46:03;;;;;;;7.5;2.6;;;;;;;13.89;100;954.8123;;;;
2019/09/25 05:48:28;;;;;;;6.3;2.6;;;;;;;13.92;100;954.7573;;;;
2019/09/25 05:50:53;;;;;;;7.3;2.6;;;;;;;13.94;100;954.8106;;;;
2019/09/25 05:53:18;;;;;;;9.9;2.7;;;;;;;13.92;100;954.8041;;;;
2019/09/25 05:55:43;;;;;;;8.8;2.7;;;;;;;13.93;100;954.785;;;;
2019/09/25 05:58:09;;;;;;;8.5;2.4;;;;;;;13.98;100;954.7802;;;;
2019/09/25 06:00:34;;;;;;;8.2;2.4;;;;;;;13.99;99.63184;954.7719;;;;
2019/09/25 06:02:59;;;;;;;8;2.3;;;;;;;13.95;99.51953;954.7876;;;;
2019/09/25 06:05:24;;;;;;;8.1;2.3;;;;;;;13.97;100;954.8144;;;;
2019/09/25 06:07:49;;;;;;;6.9;2.4;;;;;;;13.95;99.49609;954.8212;;;;
2019/09/25 06:10:14;;;;;;;7.7;2.6;;;;;;;14.03;99.35254;954.7991;;;;
2019/09/25 06:12:39;;;;;;;7.7;2.4;;;;;;;13.97;99.04785;954.8505;;;;
2019/09/25 06:15:05;;;;;;;7.4;2.3;;;;;;;14.1;98.0127;954.8577;;;;
2019/09/25 06:17:30;;;;;;;8.4;2.3;;;;;;;13.94;98.42871;954.823;;;;
2019/09/25 06:19:55;;;;;;;7.9;2.3;;;;;;;13.94;99.2627;954.8514;;;;
2019/09/25 06:22:20;;;;;;;5.9;2.3;;;;;;;13.91;99.30078;954.8121;;;;
2019/09/25 06:24:45;;;;;;;8.1;2.3;;;;;;;13.95;98.89355;954.8449;;;;
2019/09/25 06:27:11;;;;;;;9.2;2.6;;;;;;;13.94;98.85645;954.8628;;;;
2019/09/25 06:29:36;;;;;;;8.9;2.4;;;;;;;13.9;98.5791;954.822;;;;
2019/09/25 06:32:01;;;;;;;7.8;2.2;;;;;;;13.94;98.35742;954.8416;;;;
2019/09/25 06:34:26;;;;;;;9.5;2.7;;;;;;;14;98.10449;954.8965;;;;
2019/09/25 06:36:51;;;;;;;8.7;2.2;;;;;;;14.09;98.05566;954.9169;;;;
2019/09/25 06:39:16;;;;;;;6.5;2.1;;;;;;;14.13;97.61328;954.8798;;;;
2019/09/25 06:41:41;;;;;;;9.6;2.3;;;;;;;14.17;96.9707;954.8624;;;;
2019/09/25 06:44:06;;;;;;;10;2.5;;;;;;;14.24;96.26563;954.8728;;;;
2019/09/25 06:46:31;;;;;;;9.5;2.1;;;;;;;14.27;96.12402;954.8786;;;;
2019/09/25 06:48:56;;;;;;;9.4;2.6;;;;;;;14.33;96.58887;954.8555;;;;
2019/09/25 06:51:21;;;;;;;7.2;2.2;;;;;;;14.39;95.87109;954.7922;;;;
2019/09/25 06:53:46;;;;;;;7.9;2.5;;;;;;;14.49;95.96289;954.7558;;;;
2019/09/25 06:56:12;;;;;;;9.1;2.6;;;;;;;14.43;93.90527;954.7371;;;;
2019/09/25 06:58:37;;;;;;;7.4;2.1;;;;;;;14.55;94.25586;954.755;;;;
2019/09/25 07:01:02;;;;;;;6.9;2.4;;;;;;;14.6;94.38379;954.74;;;;
2019/09/25 07:03:27;;;;;;;8.8;2.4;;;;;;;14.75;93.54492;954.7369;;;;
2019/09/25 07:05:52;;;;;;;7.1;2.1;;;;;;;14.71;94.23438;954.8065;;;;
2019/09/25 07:08:17;;;;;;;6.6;2;;;;;;;14.69;93.1709;954.8676;;;;
2019/09/25 07:10:42;;;;;;;7.1;2.1;;;;;;;14.84;92.99414;954.8577;;;;
2019/09/25 07:13:07;;;;;;;7;1.9;;;;;;;14.74;94.56543;954.8482;;;;
2019/09/25 07:15:32;;;;;;;7.7;2.1;;;;;;;14.8;93.02148;954.8766;;;;
2019/09/25 07:17:57;;;;;;;6.9;2.2;;;;;;;14.77;93.66504;954.9548;;;;
2019/09/25 07:20:22;;;;;;;6.3;2.1;;;;;;;14.78;92.35352;954.9984;;;;
2019/09/25 07:22:48;;;;;;;9.3;2.3;;;;;;;14.78;91.42383;955.0754;;;;
2019/09/25 07:25:13;;;;;;;6.3;2;;;;;;;14.81;91.8125;955.0991;;;;
2019/09/25 07:27:38;;;;;;;6.8;2.2;;;;;;;14.8;90.81152;955.1326;;;;
2019/09/25 07:30:03;;;;;;;7.7;2.1;;;;;;;14.78;91.40039;955.1584;;;;
2019/09/25 07:32:28;;;;;;;7.3;2.2;;;;;;;14.81;92.24512;955.2058;;;;
2019/09/25 07:34:53;;;;;;;7.2;2.1;;;;;;;14.79;91.30762;955.1312;;;;
2019/09/25 07:37:18;;;;;;;9.6;2.4;;;;;;;14.81;90.75488;955.2148;;;;
2019/09/25 07:39:43;;;;;;;8.1;2;;;;;;;14.71;90.94434;955.1954;;;;
2019/09/25 07:42:08;;;;;;;7;1.9;;;;;;;14.75;92.19629;955.2988;;;;
2019/09/25 07:44:33;;;;;;;8.2;2;;;;;;;14.79;90.72852;955.2896;;;;
2019/09/25 07:46:58;;;;;;;6.9;2;;;;;;;14.88;90.875;955.2522;;;;
2019/09/25 07:49:23;;;;;;;9.7;2.6;;;;;;;14.92;91.11523;955.2971;;;;
2019/09/25 07:51:49;;;;;;;6.6;2.1;;;;;;;14.95;89.29688;955.3297;;;;
2019/09/25 07:54:14;;;;;;;8.3;2.2;;;;;;;14.96;89.01953;955.3864;;;;
2019/09/25 07:56:39;;;;;;;7.6;2.2;;;;;;;14.97;88.92871;955.4116;;;;
2019/09/25 07:59:04;;;;;;;7.3;2.3;;;;;;;15.04;89.54785;955.4194;;;;
2019/09/25 08:01:29;;;;;;;8.1;1.9;;;;;;;15.08;89.10352;955.4826;;;;
2019/09/25 08:03:54;;;;;;;6.5;2.1;;;;;;;15.09;90.0127;955.4152;;;;
2019/09/25 08:06:19;;;;;;;7.5;1.9;;;;;;;15.05;88.49316;955.4523;;;;
2019/09/25 08:08:44;;;;;;;8;2.3;;;;;;;15.05;88.84082;955.3753;;;;
2019/09/25 08:11:09;;;;;;;8.4;2.3;;;;;;;15.17;88.72656;955.3886;;;;
2019/09/25 08:13:34;;;;;;;7.7;2.2;;;;;;;;;;;;;
2019/09/25 08:15:59;;;;;;;8;2.2;;;;;;;;;;;;;
2019/09/25 08:18:24;;;;;;;7;1.9;;;;;;;;;;;;;
2019/09/25 08:20:49;;;;;;;6.8;2.4;;;;;;;;;;;;;
2019/09/25 08:23:15;;;;;;;6.7;1.9;;;;;;;;;;;;;
2019/09/25 08:25:40;;;;;;;6.1;1.8;;;;;;;;;;;;;
2019/09/25 08:28:05;;;;;;;8.6;2.3;;;;;;;;;;;;;
2019/09/25 08:30:30;;;;;;;6.9;1.8;;;;;;;;;;;;;
2019/09/25 08:32:55;;;;;;;7.1;2.1;;;;;;;;;;;;;
2019/09/25 08:35:20;;;;;;;6.9;2.2;;;;;;;;;;;;;
2019/09/25 08:37:45;;;;;;;8.5;2.2;;;;;;;;;;;;;
2019/09/25 08:40:10;;;;;;;7.8;2.2;;;;;;;;;;;;;
2019/09/25 08:42:35;;;;;;;8.5;2.4;;;;;;;;;;;;;
2019/09/25 08:45:00;;;;;;;8.6;2.7;;;;;;;;;;;;;
2019/09/25 08:47:25;;;;;;;6.3;2.2;;;;;;;;;;;;;
2019/09/25 08:49:51;;;;;;;7.3;2.1;;;;;;;;;;;;;
2019/09/25 08:52:16;;;;;;;7.8;2.1;;;;;;;;;;;;;
2019/09/25 08:54:41;;;;;;;7.1;1.9;;;;;;;;;;;;;
2019/09/25 08:57:06;;;;;;;5.3;1.9;;;;;;;;;;;;;
2019/09/25 08:59:31;;;;;;;7.2;2.1;;;;;;;;;;;;;
2019/09/25 09:01:56;;;;;;;6.9;2.2;;;;;;;;;;;;;
2019/09/25 09:04:21;;;;;;;7.5;2.1;;;;;;;;;;;;;
2019/09/25 09:06:46;;;;;;;6.5;2;;;;;;;;;;;;;
2019/09/25 09:09:11;;;;;;;7.5;2.3;;;;;;;;;;;;;
2019/09/25 09:11:36;;;;;;;7.1;2.1;;;;;;;;;;;;;
2019/09/25 09:14:01;;;;;;;7.4;2;;;;;;;;;;;;;
2019/09/25 09:16:27;;;;;;;7;2.4;;;;;;;;;;;;;
2019/09/25 09:18:52;;;;;;;6.7;1.9;;;;;;;;;;;;;
2019/09/25 09:21:17;;;;;;;7;2.2;;;;;;;;;;;;;
2019/09/25 09:23:42;;;;;;;9.3;2.3;;;;;;;;;;;;;
2019/09/25 09:26:07;;;;;;;6.5;2;;;;;;;;;;;;;
2019/09/25 09:28:32;;;;;;;6.5;1.9;;;;;;;;;;;;;
2019/09/25 09:30:57;;;;;;;6.2;1.8;;;;;;;;;;;;;
2019/09/25 09:33:22;;;;;;;6.8;1.9;;;;;;;;;;;;;
2019/09/25 09:35:48;;;;;;;6;1.9;;;;;;;;;;;;;
2019/09/25 09:38:13;;;;;;;8.2;2;;;;;;;;;;;;;
2019/09/25 09:40:38;;;;;;;5.1;1.9;;;;;;;;;;;;;
2019/09/25 09:43:03;;;;;;;7.3;1.8;;;;;;;;;;;;;
2019/09/25 09:45:28;;;;;;;7.5;1.9;;;;;;;;;;;;;
2019/09/25 09:47:53;;;;;;;5.4;1.8;;;;;;;;;;;;;
2019/09/25 09:50:18;;;;;;;7.6;1.9;;;;;;;;;;;;;
2019/09/25 09:52:43;;;;;;;5.8;1.8;;;;;;;;;;;;;
2019/09/25 09:55:08;;;;;;;6.4;1.9;;;;;;;;;;;;;
2019/09/25 09:57:33;;;;;;;5.8;2.1;;;;;;;;;;;;;
2019/09/25 09:59:58;;;;;;;7.7;2.3;;;;;;;;;;;;;
2019/09/25 10:02:23;;;;;;;8.1;2.2;;;;;;;;;;;;;
2019/09/25 10:04:49;;;;;;;6.9;2.1;;;;;;;;;;;;;
2019/09/25 10:07:14;;;;;;;8.1;2;;;;;;;;;;;;;
2019/09/25 10:09:39;;;;;;;8.4;2.3;;;;;;;;;;;;;
2019/09/25 10:12:04;;;;;;;7.2;2.1;;;;;;;;;;;;;
2019/09/25 10:14:29;;;;;;;7;2.1;;;;;;;;;;;;;
2019/09/25 10:16:54;;;;;;;9;2.2;;;;;;;;;;;;;
2019/09/25 10:19:19;;;;;;;7.8;2.1;;;;;;;;;;;;;
2019/09/25 10:21:44;;;;;;;6.6;2.1;;;;;;;;;;;;;
2019/09/25 10:24:10;;;;;;;7.4;2;;;;;;;;;;;;;
2019/09/25 10:26:35;;;;;;;7.6;2.2;;;;;;;;;;;;;
2019/09/25 10:29:00;;;;;;;7.2;2.4;;;;;;;;;;;;;
2019/09/25 10:31:25;;;;;;;8.4;2.2;;;;;;;;;;;;;
2019/09/25 10:33:50;;;;;;;5.9;2;;;;;;;;;;;;;
2019/09/25 10:36:15;;;;;;;6.8;2.2;;;;;;;;;;;;;
2019/09/25 10:38:40;;;;;;;6.1;2;;;;;;;;;;;;;
2019/09/25 10:41:05;;;;;;;6.8;2.2;;;;;;;;;;;;;
2019/09/25 10:43:31;;;;;;;5.6;1.9;;;;;;;;;;;;;
2019/09/25 10:45:56;;;;;;;5.1;1.7;;;;;;;;;;;;;
2019/09/25 10:48:21;;;;;;;5.9;1.9;;;;;;;;;;;;;
2019/09/25 10:50:46;;;;;;;6.4;2.1;;;;;;;;;;;;;
2019/09/25 10:53:11;;;;;;;5;2;;;;;;;;;;;;;
2019/09/25 10:55:36;;;;;;;6.6;2.2;;;;;;;;;;;;;
2019/09/25 10:58:02;;;;;;;6.6;2.2;;;;;;;;;;;;;
2019/09/25 11:00:27;;;;;;;7.3;2.2;;;;;;;;;;;;;
2019/09/25 11:02:52;;;;;;;5.2;1.8;;;;;;;;;;;;;
2019/09/25 11:05:17;;;;;;;6.9;2.4;;;;;;;;;;;;;
2019/09/25 11:07:42;;;;;;;7.5;2.2;;;;;;;;;;;;;
2019/09/25 11:10:07;;;;;;;4.8;1.9;;;;;;;;;;;;;
2019/09/25 11:12:32;;;;;;;4.4;1.7;;;;;;;;;;;;;
2019/09/25 11:14:57;;;;;;;6;1.8;;;;;;;;;;;;;
2019/09/25 11:17:22;;;;;;;6.9;1.7;;;;;;;;;;;;;
2019/09/25 11:19:47;;;;;;;5.5;1.6;;;;;;;;;;;;;
2019/09/25 11:22:12;;;;;;;5.7;1.9;;;;;;;;;;;;;
2019/09/25 11:24:37;;;;;;;4.9;1.5;;;;;;;;;;;;;
2019/09/25 11:27:03;;;;;;;2.8;1.2;;;;;;;;;;;;;
2019/09/25 11:29:28;;;;;;;3.7;1.2;;;;;;;;;;;;;
2019/09/25 11:31:53;;;;;;;6.1;1.6;;;;;;;;;;;;;
2019/09/25 11:34:36;;;;;;;5.5;1.8;;;;;;;;;;;;;
2019/09/25 11:36:55;;;;;;;4.3;1.6;;;;;;;;;;;;;
2019/09/25 11:39:20;;;;;;;7.2;1.8;;;;;;;;;;;;;
2019/09/25 11:41:45;;;;;;;4.3;1.4;;;;;;;;;;;;;
2019/09/25 11:44:10;;;;;;;4.8;1.4;;;;;;;;;;;;;
2019/09/25 11:46:36;;;;;;;4.7;1.5;;;;;;;;;;;;;
2019/09/25 11:49:00;;;;;;;5.9;1.2;;;;;;;;;;;;;
2019/09/25 11:51:25;;;;;;;6.1;1.4;;;;;;;;;;;;;
2019/09/25 11:53:50;;;;;;;5.5;1.5;;;;;;;;;;;;;
2019/09/25 11:56:15;;;;;;;4.1;1.2;;;;;;;;;;;;;
2019/09/25 11:58:41;;;;;;;4.7;1.2;;;;;;;;;;;;;
2019/09/25 12:01:06;;;;;;;2.9;1.1;;;;;;;;;;;;;
2019/09/25 12:03:31;;;;;;;5.2;1.9;;;;;;;;;;;;;
2019/09/25 12:05:56;;;;;;;3.3;1.6;;;;;;;;;;;;;
2019/09/25 12:08:21;;;;;;;4.3;1.2;;;;;;;;;;;;;
2019/09/25 12:10:46;;;;;;;3.7;1.2;;;;;;;;;;;;;
2019/09/25 12:13:11;;;;;;;3.7;1.4;;;;;;;;;;;;;
2019/09/25 12:15:36;;;;;;;4.1;1.4;;;;;;;;;;;;;
2019/09/25 12:18:01;;;;;;;4.2;1.1;;;;;;;;;;;;;
2019/09/25 12:20:26;;;;;;;4.4;1.3;;;;;;;;;;;;;
2019/09/25 12:22:51;;;;;;;2.8;1.2;;;;;;;;;;;;;
2019/09/25 12:25:17;;;;;;;4.8;1.4;;;;;;;;;;;;;
2019/09/25 12:27:42;;;;;;;3.5;1.1;;;;;;;;;;;;;
2019/09/25 12:30:07;;;;;;;3.1;1;;;;;;;;;;;;;
2019/09/25 12:32:32;;;;;;;4.4;1.2;;;;;;;;;;;;;
2019/09/25 12:34:57;;;;;;;4;1.2;;;;;;;;;;;;;
2019/09/25 12:37:22;;;;;;;3.5;1.2;;;;;;;;;;;;;
2019/09/25 12:39:47;;;;;;;3.6;1.1;;;;;;;;;;;;;
2019/09/25 12:42:12;;;;;;;4.4;1.1;;;;;;;;;;;;;
2019/09/25 12:44:37;;;;;;;3;1.1;;;;;;;;;;;;;
2019/09/25 12:47:02;;;;;;;4.1;0.9;;;;;;;;;;;;;
2019/09/25 12:49:27;;;;;;;3.6;1.1;;;;;;;;;;;;;
2019/09/25 12:51:53;;;;;;;2.9;1;;;;;;;;;;;;;
2019/09/25 12:54:18;;;;;;;5.6;1.1;;;;;;;;;;;;;
2019/09/25 12:56:43;;;;;;;4.2;1.4;;;;;;;;;;;;;
2019/09/25 12:59:08;;;;;;;4;1.2;;;;;;;;;;;;;
2019/09/25 13:01:33;;;;;;;2.8;0.9;;;;;;;;;;;;;
2019/09/25 13:03:58;;;;;;;3.3;1;;;;;;;;;;;;;
2019/09/25 13:06:23;;;;;;;3.4;1.1;;;;;;;;;;;;;
2019/09/25 13:08:49;;;;;;;3.9;1;;;;;;;;;;;;;
2019/09/25 13:11:14;;;;;;;2.8;1;;;;;;;;;;;;;
2019/09/25 13:13:39;;;;;;;4.1;1.1;;;;;;;;;;;;;
2019/09/25 13:16:04;;;;;;;3.5;0.9;;;;;;;;;;;;;
2019/09/25 13:18:29;;;;;;;3.2;1.1;;;;;;;;;;;;;
2019/09/25 13:20:54;;;;;;;4.2;1.4;;;;;;;;;;;;;
2019/09/25 13:23:19;;;;;;;3.8;1.2;;;;;;;;;;;;;
2019/09/25 13:25:44;;;;;;;3.5;1.2;;;;;;;;;;;;;
2019/09/25 13:28:09;;;;;;;2.4;1;;;;;;;;;;;;;
2019/09/25 13:30:34;;;;;;;2.8;1.2;;;;;;;;;;;;;
2019/09/25 13:33:00;;;;;;;2.6;0.9;;;;;;;;;;;;;
2019/09/25 13:35:25;;;;;;;2.6;1;;;;;;;;;;;;;
2019/09/25 13:37:50;;;;;;;2.4;1;;;;;;;;;;;;;
2019/09/25 13:40:15;;;;;;;3.8;1.2;;;;;;;;;;;;;
2019/09/25 13:42:40;;;;;;;1.9;0.9;;;;;;;;;;;;;
2019/09/25 13:45:08;;;;;;;2.3;1;;;;;;;;;;;;;
2019/09/25 13:47:30;;;;;;;2.4;0.9;;;;;;;;;;;;;
2019/09/25 13:49:55;;;;;;;3.4;1.1;;;;;;;;;;;;;
2019/09/25 13:52:20;;;;;;;2.2;0.9;;;;;;;;;;;;;
2019/09/25 13:54:45;;;;;;;2.1;1;;;;;;;;;;;;;
2019/09/25 13:57:10;;;;;;;3;1;;;;;;;;;;;;;
2019/09/25 13:59:36;;;;;;;4.8;2.4;;;;;;;;;;;;;
2019/09/25 14:02:01;;;;;;;2.8;1.2;;;;;;;;;;;;;
2019/09/25 14:04:26;;;;;;;3.3;1.3;;;;;;;;;;;;;
2019/09/25 14:06:51;;;;;;;3.1;1.1;;;;;;;;;;;;;
2019/09/25 14:09:16;;;;;;;4.7;1.1;;;;;;;;;;;;;
2019/09/25 14:11:41;;;;;;;4.9;1.2;;;;;;;;;;;;;
2019/09/25 14:14:06;;;;;;;2.8;1.2;;;;;;;;;;;;;
2019/09/25 14:16:32;;;;;;;3.2;1.6;;;;;;;;;;;;;
2019/09/25 14:18:56;;;;;;;3;1.2;;;;;;;;;;;;;
2019/09/25 14:21:21;;;;;;;2.7;1;;;;;;;;;;;;;
2019/09/25 14:23:46;;;;;;;3.4;1.1;;;;;;;;;;;;;
2019/09/25 14:26:11;;;;;;;3.3;1;;;;;;;;;;;;;
2019/09/25 14:28:36;;;;;;;3.5;1.2;;;;;;;;;;;;;
2019/09/25 14:31:02;;;;;;;4.4;1.6;;;;;;;;;;;;;
2019/09/25 14:33:27;;;;;;;12.8;9.5;;;;;;;;;;;;;
2019/09/25 14:35:52;;;;;;;4.5;1.4;;;;;;;;;;;;;
2019/09/25 14:38:17;;;;;;;4.4;1.4;;;;;;;;;;;;;
2019/09/25 14:40:42;;;;;;;2.8;1.1;;;;;;;;;;;;;
2019/09/25 14:43:07;;;;;;;6.1;1.2;;;;;;;;;;;;;
2019/09/25 14:45:32;;;;;;;4.2;1.4;;;;;;;;;;;;;
2019/09/25 14:47:57;;;;;;;5.3;1.1;;;;;;;;;;;;;
2019/09/25 14:50:22;;;;;;;3.6;1.2;;;;;;;;;;;;;
2019/09/25 14:52:47;;;;;;;5.6;1.5;;;;;;;;;;;;;
2019/09/25 14:55:12;;;;;;;3.9;1.3;;;;;;;;;;;;;
2019/09/25 14:57:37;;;;;;;5.9;1.3;;;;;;;;;;;;;
2019/09/25 15:00:03;;;;;;;4.4;1.3;;;;;;;;;;;;;
2019/09/25 15:02:28;;;;;;;3.6;1.3;;;;;;;;;;;;;
2019/09/25 15:04:53;;;;;;;4.2;1.5;;;;;;;;;;;;;
2019/09/25 15:07:18;;;;;;;4.8;2.2;;;;;;;;;;;;;
2019/09/25 15:09:43;;;;;;;5.4;2.5;;;;;;;;;;;;;
2019/09/25 15:12:08;;;;;;;3.8;1.6;;;;;;;;;;;;;
2019/09/25 15:14:33;;;;;;;2.7;1.2;;;;;;;;;;;;;
2019/09/25 15:16:58;;;;;;;4.3;1.1;;;;;;;;;;;;;
2019/09/25 15:19:24;;;;;;;3.7;1.4;;;;;;;;;;;;;
2019/09/25 15:21:49;;;;;;;3.8;1.2;;;;;;;;;;;;;
2019/09/25 15:24:14;;;;;;;5.1;1.4;;;;;;;;;;;;;
2019/09/25 15:26:39;;;;;;;3.1;1.2;;;;;;;;;;;;;
2019/09/25 15:29:04;;;;;;;4.4;1.7;;;;;;;;;;;;;
2019/09/25 15:31:29;;;;;;;3;1.3;;;;;;;;;;;;;
2019/09/25 15:33:54;;;;;;;3.5;1.3;;;;;;;;;;;;;
2019/09/25 15:36:19;;;;;;;3.3;1.3;;;;;;;;;;;;;
2019/09/25 15:38:45;;;;;;;3.3;1.2;;;;;;;;;;;;;
2019/09/25 15:41:10;;;;;;;4.4;1.4;;;;;;;;;;;;;
2019/09/25 15:43:35;;;;;;;2.7;1.2;;;;;;;;;;;;;
2019/09/25 15:46:00;;;;;;;4.1;1.2;;;;;;;;;;;;;
2019/09/25 15:48:25;;;;;;;3.6;1.4;;;;;;;;;;;;;
2019/09/25 15:50:50;;;;;;;4.4;1.4;;;;;;;;;;;;;
2019/09/25 15:53:15;;;;;;;1.9;1.2;;;;;;;;;;;;;
2019/09/25 15:55:41;;;;;;;3.2;1.3;;;;;;;;;;;;;
2019/09/25 15:58:06;;;;;;;3.3;1.2;;;;;;;;;;;;;
2019/09/25 16:00:31;;;;;;;3.3;1.2;;;;;;;;;;;;;
2019/09/25 16:02:56;;;;;;;4.2;1.4;;;;;;;;;;;;;
2019/09/25 16:05:21;;;;;;;3.2;1.2;;;;;;;;;;;;;
2019/09/25 16:07:46;;;;;;;3.5;1.2;;;;;;;;;;;;;
2019/09/25 16:10:11;;;;;;;3;1.2;;;;;;;;;;;;;
2019/09/25 16:12:36;;;;;;;2.5;1.1;;;;;;;;;;;;;
2019/09/25 16:15:01;;;;;;;4.1;1.3;;;;;;;;;;;;;
2019/09/25 16:17:27;;;;;;;3.8;1.4;;;;;;;;;;;;;
2019/09/25 16:19:52;;;;;;;3.2;1.1;;;;;;;;;;;;;
2019/09/25 16:22:17;;;;;;;4.8;1.9;;;;;;;;;;;;;
2019/09/25 16:24:42;;;;;;;4.1;1.7;;;;;;;;;;;;;
2019/09/25 16:27:07;;;;;;;4.3;1.5;;;;;;;;;;;;;
2019/09/25 16:29:32;;;;;;;2.9;1.7;;;;;;;;;;;;;
2019/09/25 16:31:57;;;;;;;2.9;1.3;;;;;;;;;;;;;
2019/09/25 16:34:23;;;;;;;3.2;1.4;;;;;;;;;;;;;
2019/09/25 16:36:48;;;;;;;2.5;1.2;;;;;;;;;;;;;
2019/09/25 16:39:13;;;;;;;3.5;1.1;;;;;;;;;;;;;
2019/09/25 16:41:38;;;;;;;3.3;1.3;;;;;;;;;;;;;
2019/09/25 16:44:03;;;;;;;5.3;1.9;;;;;;;;;;;;;
2019/09/25 16:46:28;;;;;;;4.1;1.4;;;;;;;;;;;;;
2019/09/25 16:48:53;;;;;;;3.7;1.7;;;;;;;;;;;;;
2019/09/25 16:51:18;;;;;;;3.4;1.4;;;;;;;;;;;;;
2019/09/25 16:53:43;;;;;;;2.7;1.1;;;;;;;;;;;;;
2019/09/25 16:56:09;;;;;;;2.4;1.1;;;;;;;;;;;;;
2019/09/25 16:58:34;;;;;;;2.9;1.3;;;;;;;;;;;;;
2019/09/25 17:00:59;;;;;;;4.4;1.3;;;;;;;;;;;;;
2019/09/25 17:03:24;;;;;;;4.7;1.9;;;;;;;;;;;;;
2019/09/25 17:05:49;;;;;;;5.8;2.9;;;;;;;;;;;;;
2019/09/25 17:08:14;;;;;;;3.6;1.4;;;;;;;;;;;;;
2019/09/25 17:10:39;;;;;;;4.9;1.7;;;;;;;;;;;;;
2019/09/25 17:13:04;;;;;;;4.8;1.5;;;;;;;;;;;;;
2019/09/25 17:15:32;;;;;;;4.4;2;;;;;;;;;;;;;
2019/09/25 17:17:54;;;;;;;4.1;1.9;;;;;;;;;;;;;
2019/09/25 17:20:20;;;;;;;4.8;1.8;;;;;;;;;;;;;
2019/09/25 17:22:45;;;;;;;3.2;1.5;;;;;;;;;;;;;
2019/09/25 17:25:10;;;;;;;3.2;1.5;;;;;;;;;;;;;
2019/09/25 17:27:35;;;;;;;4.2;1.6;;;;;;;;;;;;;
2019/09/25 17:30:00;;;;;;;3.8;1.4;;;;;;;;;;;;;
2019/09/25 17:32:25;;;;;;;2.5;1.3;;;;;;;;;;;;;
2019/09/25 17:34:50;;;;;;;3.2;1.7;;;;;;;;;;;;;
2019/09/25 17:37:15;;;;;;;3.2;1.3;;;;;;;;;;;;;
2019/09/25 17:39:40;;;;;;;4.1;1.7;;;;;;;;;;;;;
2019/09/25 17:42:05;;;;;;;4.1;1.6;;;;;;;;;;;;;
2019/09/25 17:44:30;;;;;;;3.7;1.6;;;;;;;;;;;;;
2019/09/25 17:46:55;;;;;;;3.7;1.5;;;;;;;;;;;;;
2019/09/25 17:49:21;;;;;;;5;1.4;;;;;;;;;;;;;
2019/09/25 17:51:46;;;;;;;3.2;1.4;;;;;;;;;;;;;
2019/09/25 17:54:11;;;;;;;3.9;1.4;;;;;;;;;;;;;
2019/09/25 17:56:36;;;;;;;3.5;1.2;;;;;;;;;;;;;
2019/09/25 17:59:01;;;;;;;5.7;2.9;;;;;;;;;;;;;
2019/09/25 20:09:39;;;;;;;5;3;;;;;;;14.63;84.875;956.0676;;;;
2019/09/25 20:12:05;;;;;;;7;2.7;;;;;;;14.66;84.22949;956.0586;;;;
2019/09/25 20:14:30;;;;;;;5.6;2.3;;;;;;;14.58;81.88086;956.0627;;;;
2019/09/25 20:16:55;;;;;;;7.2;2.8;;;;;;;14.58;81.92676;956.0644;;;;
2019/09/25 20:19:20;;;;;;;5.6;2.3;;;;;;;14.52;81.55566;956.1359;;;;
2019/09/25 20:21:45;;;;;;;5.2;2;;;;;;;14.57;81.40234;956.158;;;;
2019/09/25 20:24:10;;;;;;;5.4;1.9;;;;;;;14.56;81.26172;956.1947;;;;
2019/09/25 20:26:35;;;;;;;3.7;1.8;;;;;;;14.6;81.25684;956.1605;;;;
2019/09/25 20:29:00;;;;;;;4.2;1.8;;;;;;;14.62;81.45801;956.0839;;;;
2019/09/25 20:31:25;;;;;;;5;1.8;;;;;;;14.58;81.35645;956.1014;;;;
2019/09/25 20:35:38;;;;;;;4.4;1.6;;;;;;;14.57;81.25195;956.0728;;;;
2019/09/25 20:38:03;;;;;;;4.4;1.4;;;;;;;14.51;81.48438;956.0759;;;;
2019/09/25 20:40:28;;;;;;;3.5;1.7;;;;;;;14.5;82.23535;956.0872;;;;
2019/09/25 20:42:53;;;;;;;3.9;1.7;;;;;;;14.46;82.09082;956.0496;;;;
2019/09/25 20:45:18;;;;;;;3.3;1.5;;;;;;;14.46;82.08984;956.1078;;;;
2019/09/25 20:47:43;;;;;;;4.7;1.9;;;;;;;14.43;81.875;956.0858;;;;